Grande Prairie, Canada
Current Conditions -  °F | °C
As of 11:00 AM on Saturday 20 Dec 2014 (Local Time) from CYQU Reporting Station
Broken Clouds Broken Clouds  
Wind Chill:   Ceiling: 18000
Heat Index:   Visibility: 20mi
Dew Point:   Wind: 3mph
Humidity: 85%   Direction: 350°N
Pressure: 29.48"   Gusts: NA
Location:  55.17°N, 118.79°W
Report Text: CYQU 201800Z 35003KT 20SM BKN180 M14/M16 A2948 RMK AC6 SLP038
Loading
Personal Weather Stations






























Interactive Weather Map New forecast layout! Learn more

10-Day Weather Forecast

Advertisements
Track Severe Weather on mobile